createdAt,value
2022-08-21T00:00:00.000Z,14.68
2022-08-21T00:15:00.000Z,13.19
2022-08-21T00:30:00.000Z,13.07
2022-08-21T00:45:00.000Z,15.59
2022-08-21T01:15:00.000Z,14
2022-08-21T01:15:00.000Z,12.52
2022-08-21T01:30:00.000Z,11.13
2022-08-21T01:45:00.000Z,12.54
2022-08-21T02:00:00.000Z,10.28
2022-08-21T02:15:00.000Z,8.77
2022-08-21T02:30:00.000Z,7.91
2022-08-21T02:45:00.000Z,7.64
2022-08-21T03:00:00.000Z,7.93
2022-08-21T03:15:00.000Z,7.61
2022-08-21T03:30:00.000Z,7.56
2022-08-21T03:45:00.000Z,7.58
2022-08-21T04:00:00.000Z,7.35
2022-08-21T04:15:00.000Z,7.49
2022-08-21T04:30:00.000Z,7.78
2022-08-21T04:45:00.000Z,7.46
2022-08-21T05:00:00.000Z,7.68
2022-08-21T05:15:00.000Z,7.99
2022-08-21T05:30:00.000Z,7.55
2022-08-21T05:45:00.000Z,7.44
2022-08-21T06:00:00.000Z,7.68
2022-08-21T06:15:00.000Z,7.61
2022-08-21T06:30:00.000Z,7.45
2022-08-21T06:45:00.000Z,7.78
2022-08-21T07:00:00.000Z,7.74
2022-08-21T07:15:00.000Z,7.22
2022-08-21T07:30:00.000Z,7.46
2022-08-21T07:45:00.000Z,8.08
2022-08-21T08:00:00.000Z,9.28
2022-08-21T08:15:00.000Z,7.31
2022-08-21T08:30:00.000Z,7.52
2022-08-21T08:45:00.000Z,8.09
2022-08-21T09:00:00.000Z,7.49
2022-08-21T09:15:00.000Z,8.01
2022-08-21T09:30:00.000Z,8.45
2022-08-21T09:45:00.000Z,8.36
2022-08-21T10:00:00.000Z,7.86
2022-08-21T10:15:00.000Z,7.33
2022-08-21T10:30:00.000Z,7.45
2022-08-21T10:45:00.000Z,7.99
2022-08-21T11:00:00.000Z,7.36
2022-08-21T11:15:00.000Z,10.59
2022-08-21T11:30:00.000Z,7.98
2022-08-21T11:45:00.000Z,8.01
2022-08-21T12:00:00.000Z,7.98
2022-08-21T12:15:00.000Z,10.88
2022-08-21T12:30:00.000Z,7.67
2022-08-21T12:45:00.000Z,9.76
2022-08-21T13:00:00.000Z,8.45
2022-08-21T13:15:00.000Z,9.65
2022-08-21T13:30:00.000Z,8.35
2022-08-21T13:45:00.000Z,7.48
2022-08-21T14:00:00.000Z,8.28
2022-08-21T14:15:00.000Z,8.36
2022-08-21T14:30:00.000Z,8.75
2022-08-21T14:45:00.000Z,8.04
2022-08-21T15:00:00.000Z,8.28
2022-08-21T15:15:00.000Z,8.73
2022-08-21T15:30:00.000Z,12.09
2022-08-21T15:45:00.000Z,9.51
2022-08-21T16:00:00.000Z,10.15
2022-08-21T16:15:00.000Z,8.12
2022-08-21T16:30:00.000Z,9.38
2022-08-21T16:45:00.000Z,8.71
2022-08-21T17:00:00.000Z,9.87
2022-08-21T17:15:00.000Z,10.53
2022-08-21T17:30:00.000Z,10.22
2022-08-21T17:45:00.000Z,10.8
2022-08-21T18:00:00.000Z,11.41
2022-08-21T18:15:00.000Z,11.08
2022-08-21T18:30:00.000Z,11.52
2022-08-21T18:45:00.000Z,12.85
2022-08-21T19:00:00.000Z,13.79
2022-08-21T19:15:00.000Z,14.33
2022-08-21T19:30:00.000Z,15.15
2022-08-21T19:45:00.000Z,15.76
2022-08-21T20:00:00.000Z,12.82
2022-08-21T20:15:00.000Z,12.25
2022-08-21T20:30:00.000Z,12.11
2022-08-21T20:45:00.000Z,12.16
2022-08-21T21:00:00.000Z,12.31
2022-08-21T21:15:00.000Z,13.33
2022-08-21T21:30:00.000Z,13.91
2022-08-21T21:45:00.000Z,14.4
2022-08-21T22:00:00.000Z,14.49
2022-08-21T22:15:00.000Z,13.8
2022-08-21T22:30:00.000Z,14.29
2022-08-21T22:45:00.000Z,14.88
2022-08-21T23:00:00.000Z,14.73
2022-08-21T23:15:00.000Z,14.49
2022-08-21T23:30:00.000Z,15.68
2022-08-21T23:45:00.000Z,15.98
